Time;durP1;ratioP1;P1;durP2;ratioP2;P2;SDS_P1;SDS_P2;PMS_P1;PMS_P2;Temp;Humidity;BMP_temperature;BMP_pressure;BME280_temperature;BME280_humidity;BME280_pressure;Samples;Min_cycle;Max_cycle;Signal;HPM_P1;HPM_P2
2022/07/01 00:01:36;;;;;;;1.95;0.73;;;15.00;99.90;;;;;;5089743;28;20075;-64
2022/07/01 00:04:02;;;;;;;1.98;0.80;;;15.10;99.90;;;;;;5092058;28;20024;-65
2022/07/01 00:06:27;;;;;;;1.92;0.80;;;15.10;99.90;;;;;;5089195;28;20077;-64
2022/07/01 00:08:53;;;;;;;0.82;0.52;;;15.10;99.90;;;;;;5122486;27;20493;-65
2022/07/01 00:11:19;;;;;;;1.92;0.70;;;15.10;99.90;;;;;;5092830;28;20060;-64
2022/07/01 00:13:45;;;;;;;1.88;0.70;;;15.00;99.90;;;;;;5092579;28;20547;-65
2022/07/01 00:16:10;;;;;;;1.20;0.60;;;15.10;99.90;;;;;;5091541;28;20055;-65
2022/07/01 00:18:36;;;;;;;1.48;0.52;;;15.00;99.90;;;;;;5091836;28;20520;-64
2022/07/01 00:21:02;;;;;;;1.88;0.80;;;15.00;99.90;;;;;;5091183;28;20070;-64
2022/07/01 00:23:29;;;;;;;1.27;0.60;;;14.90;99.90;;;;;;5090398;28;20154;-63
2022/07/01 00:25:54;;;;;;;2.25;0.57;;;15.00;99.90;;;;;;5090730;28;20131;-64
2022/07/01 00:28:20;;;;;;;1.63;0.75;;;14.90;99.90;;;;;;5090628;28;20127;-64
2022/07/01 00:30:46;;;;;;;1.55;0.70;;;15.00;99.90;;;;;;5124104;27;20036;-64
2022/07/01 00:33:12;;;;;;;1.25;0.50;;;15.00;99.90;;;;;;5088650;28;20055;-65
2022/07/01 00:35:38;;;;;;;0.85;0.70;;;15.00;99.90;;;;;;5124134;27;20044;-65
2022/07/01 00:38:03;;;;;;;1.73;0.60;;;15.00;99.90;;;;;;5090419;28;20055;-65
2022/07/01 00:40:29;;;;;;;2.25;1.05;;;15.00;99.90;;;;;;5089609;28;20043;-65
2022/07/01 00:42:55;;;;;;;1.83;0.75;;;15.00;99.90;;;;;;5090981;28;20071;-64
2022/07/01 00:45:21;;;;;;;1.27;0.68;;;15.00;99.90;;;;;;5089646;28;20036;-64
2022/07/01 00:47:47;;;;;;;1.80;0.80;;;15.00;99.90;;;;;;5090086;28;20121;-65
2022/07/01 00:50:15;;;;;;;0.77;0.77;;;15.10;99.90;;;;;;5091459;28;20590;-65
2022/07/01 00:52:43;;;;;;;2.95;1.00;;;15.10;99.90;;;;;;5090916;28;20072;-65
2022/07/01 00:55:11;;;;;;;1.08;0.82;;;15.10;99.90;;;;;;5089245;28;20048;-64
2022/07/01 00:57:38;;;;;;;1.75;0.70;;;15.10;99.90;;;;;;5090547;28;20395;-65
2022/07/01 01:00:05;;;;;;;0.95;0.60;;;15.10;99.90;;;;;;5090190;28;20093;-63
2022/07/01 01:02:31;;;;;;;1.30;0.80;;;15.10;99.90;;;;;;5122271;27;20087;-64
2022/07/01 01:04:57;;;;;;;1.83;0.85;;;15.10;99.90;;;;;;5089069;28;20635;-64
2022/07/01 01:07:23;;;;;;;1.25;0.85;;;15.10;99.90;;;;;;5089293;28;20036;-64
2022/07/01 01:09:49;;;;;;;0.75;0.60;;;15.10;99.90;;;;;;5089119;28;20391;-64
2022/07/01 01:12:15;;;;;;;1.45;0.90;;;15.20;99.90;;;;;;5089517;28;20036;-64
2022/07/01 01:14:44;;;;;;;1.10;0.80;;;15.10;99.90;;;;;;5089460;28;20047;-64
2022/07/01 01:17:10;;;;;;;1.30;1.00;;;15.10;99.90;;;;;;5089023;28;20154;-64
2022/07/01 01:19:36;;;;;;;1.80;0.82;;;15.10;99.90;;;;;;5090155;28;20130;-64
2022/07/01 01:22:02;;;;;;;1.10;0.93;;;15.10;99.90;;;;;;5089890;28;20471;-65
2022/07/01 01:24:27;;;;;;;4.13;1.10;;;15.00;99.90;;;;;;5091139;28;20047;-64
2022/07/01 01:26:53;;;;;;;2.80;1.00;;;15.00;99.90;;;;;;5090920;28;20043;-64
2022/07/01 01:29:18;;;;;;;2.22;1.00;;;15.00;99.90;;;;;;5090215;28;20040;-64
2022/07/01 01:31:44;;;;;;;2.20;1.10;;;15.00;99.90;;;;;;5090495;28;20032;-64
2022/07/01 01:34:10;;;;;;;1.42;1.08;;;15.00;99.90;;;;;;5089529;28;20036;-64
2022/07/01 01:36:36;;;;;;;2.15;1.02;;;15.00;99.90;;;;;;5091061;28;20071;-64
2022/07/01 01:39:22;;;;;;;2.88;1.10;;;15.00;99.90;;;;;;5088744;28;20036;-64
2022/07/01 01:41:48;;;;;;;2.90;1.30;;;15.00;99.90;;;;;;5088418;28;20123;-65
2022/07/01 01:44:13;;;;;;;2.03;1.30;;;15.00;99.90;;;;;;5089434;28;20141;-65
2022/07/01 01:46:39;;;;;;;1.77;1.30;;;15.00;99.90;;;;;;5088471;28;20040;-64
2022/07/01 01:49:06;;;;;;;1.95;1.33;;;15.00;99.90;;;;;;5090573;28;20530;-65
2022/07/01 01:51:32;;;;;;;1.33;1.17;;;15.00;99.90;;;;;;5089843;28;20059;-64
2022/07/01 01:53:58;;;;;;;3.30;1.23;;;15.00;99.90;;;;;;5092531;28;20031;-65
2022/07/01 01:56:25;;;;;;;1.70;1.60;;;15.10;99.90;;;;;;5089699;28;20043;-64
2022/07/01 01:58:51;;;;;;;1.95;1.40;;;15.10;99.90;;;;;;5088992;28;20395;-64
2022/07/01 02:01:18;;;;;;;2.55;1.40;;;15.10;99.90;;;;;;5087716;28;20056;-65
2022/07/01 02:03:46;;;;;;;1.77;1.38;;;15.10;99.90;;;;;;5087549;28;20036;-65
2022/07/01 02:06:13;;;;;;;1.50;1.40;;;15.20;99.90;;;;;;5091244;28;20054;-64
2022/07/01 02:08:40;;;;;;;2.22;1.30;;;15.20;99.90;;;;;;5090967;28;20613;-65
2022/07/01 02:11:06;;;;;;;2.95;1.92;;;15.30;99.90;;;;;;5088892;28;20039;-64
2022/07/01 02:13:32;;;;;;;3.67;1.25;;;15.30;99.90;;;;;;5087531;28;20035;-64
2022/07/01 02:15:58;;;;;;;1.20;1.10;;;15.30;99.90;;;;;;5088988;28;20052;-64
2022/07/01 02:18:24;;;;;;;2.83;1.80;;;15.30;99.90;;;;;;5087959;28;20039;-64
2022/07/01 02:20:49;;;;;;;2.28;1.80;;;15.30;99.90;;;;;;5089703;28;20379;-64
2022/07/01 02:23:15;;;;;;;2.42;1.90;;;15.40;99.90;;;;;;5090724;28;20046;-64
2022/07/01 02:25:41;;;;;;;3.72;3.28;;;15.40;99.90;;;;;;5119716;27;20478;-65
2022/07/01 02:28:07;;;;;;;9.00;5.78;;;15.40;99.90;;;;;;5088450;28;20453;-64
2022/07/01 02:30:36;;;;;;;9.00;6.28;;;15.30;99.90;;;;;;5086049;28;20052;-65
2022/07/01 02:33:06;;;;;;;8.25;7.35;;;15.20;99.90;;;;;;5088956;28;20047;-65
2022/07/01 02:35:33;;;;;;;6.95;6.20;;;15.20;99.90;;;;;;5089388;28;20040;-64
2022/07/01 02:37:59;;;;;;;9.02;5.93;;;15.10;99.90;;;;;;5087672;28;20036;-64
2022/07/01 02:40:25;;;;;;;6.57;5.90;;;15.00;99.90;;;;;;5088025;28;20046;-65
2022/07/01 02:42:50;;;;;;;8.13;6.13;;;14.90;99.90;;;;;;5087473;28;20055;-64
2022/07/01 02:45:16;;;;;;;8.85;6.50;;;14.90;99.90;;;;;;5086633;28;20036;-64
2022/07/01 02:47:42;;;;;;;8.50;6.63;;;14.90;99.90;;;;;;5088641;28;20040;-65
2022/07/01 02:50:10;;;;;;;8.80;6.50;;;14.80;99.90;;;;;;5089351;28;20051;-64
2022/07/01 02:52:37;;;;;;;7.18;6.18;;;14.80;99.90;;;;;;5087841;28;20039;-64
2022/07/01 02:55:05;;;;;;;9.43;6.40;;;14.80;99.90;;;;;;5070368;28;20060;-64
2022/07/01 02:57:31;;;;;;;10.10;7.22;;;14.80;99.90;;;;;;5069809;28;20081;-64
2022/07/01 02:59:57;;;;;;;7.30;6.53;;;14.70;99.90;;;;;;5088059;28;20490;-64
2022/07/01 03:02:23;;;;;;;8.85;7.32;;;14.60;99.90;;;;;;5087886;28;20043;-64
2022/07/01 03:04:50;;;;;;;9.10;7.22;;;14.70;99.90;;;;;;5089276;28;20032;-65
2022/07/01 03:07:17;;;;;;;10.88;8.45;;;14.70;99.90;;;;;;5088439;28;20415;-64
2022/07/01 03:09:43;;;;;;;9.48;7.35;;;14.60;99.90;;;;;;5090024;28;20282;-65
2022/07/01 03:12:27;;;;;;;9.05;7.75;;;14.70;99.90;;;;;;5089731;28;20047;-64
2022/07/01 03:14:53;;;;;;;10.52;8.25;;;14.70;99.90;;;;;;5105087;28;20040;-65
2022/07/01 03:17:19;;;;;;;11.73;9.07;;;14.60;99.90;;;;;;5092596;28;20032;-64
2022/07/01 03:19:46;;;;;;;12.15;9.55;;;14.60;99.90;;;;;;5091822;28;20024;-65
2022/07/01 03:22:11;;;;;;;16.13;11.90;;;14.60;99.90;;;;;;5106238;28;20130;-65
2022/07/01 03:24:37;;;;;;;13.80;11.05;;;14.60;99.90;;;;;;5123564;27;20128;-64
2022/07/01 03:27:03;;;;;;;14.68;11.73;;;14.50;99.90;;;;;;5092690;28;20051;-64
2022/07/01 03:29:29;;;;;;;15.15;11.77;;;14.60;99.90;;;;;;5092715;28;20482;-64
2022/07/01 03:31:55;;;;;;;14.55;12.52;;;14.60;99.90;;;;;;5092654;28;20024;-64
2022/07/01 03:34:20;;;;;;;15.95;13.60;;;14.70;99.90;;;;;;5093178;28;20115;-64
2022/07/01 03:36:46;;;;;;;18.42;14.85;;;14.70;99.90;;;;;;5092587;28;20112;-65
2022/07/01 03:39:12;;;;;;;16.40;14.63;;;14.60;99.90;;;;;;5126020;27;20071;-64
2022/07/01 03:41:37;;;;;;;23.48;17.02;;;14.70;99.90;;;;;;5092222;28;20036;-65
2022/07/01 03:44:03;;;;;;;18.92;16.33;;;14.70;99.90;;;;;;5106737;28;20054;-64
2022/07/01 03:46:31;;;;;;;20.55;16.40;;;14.70;99.90;;;;;;5092932;28;20040;-65
2022/07/01 03:48:57;;;;;;;20.15;16.83;;;14.70;99.90;;;;;;5091474;28;20052;-65
2022/07/01 03:51:23;;;;;;;19.75;17.25;;;14.70;99.90;;;;;;5093024;28;20032;-65
2022/07/01 03:56:33;;;;;;;24.92;19.00;;;14.70;99.90;;;;;;5093061;28;20126;-64
2022/07/01 03:58:59;;;;;;;22.63;18.25;;;14.70;99.90;;;;;;5123495;27;20142;-64
2022/07/01 04:01:25;;;;;;;20.88;18.15;;;14.70;99.90;;;;;;5090616;28;20046;-65
2022/07/01 04:03:50;;;;;;;21.35;16.67;;;14.70;99.90;;;;;;5092571;28;20035;-65
2022/07/01 04:06:16;;;;;;;20.95;17.15;;;14.80;99.90;;;;;;5092719;28;20120;-64
2022/07/01 04:08:42;;;;;;;24.70;17.73;;;14.70;99.90;;;;;;5106521;28;20077;-65
2022/07/01 04:11:08;;;;;;;24.42;19.30;;;14.70;99.90;;;;;;5091876;28;20055;-65
2022/07/01 04:13:37;;;;;;;20.42;18.20;;;14.70;99.90;;;;;;5090233;28;20036;-64
2022/07/01 04:16:03;;;;;;;21.88;17.67;;;14.70;99.90;;;;;;5090971;28;20075;-64
2022/07/01 04:18:30;;;;;;;23.48;18.75;;;14.70;99.90;;;;;;5087474;28;20117;-66
2022/07/01 04:23:41;;;;;;;20.33;17.10;;;14.60;99.90;;;;;;5090372;28;20088;-64
2022/07/01 04:26:06;;;;;;;25.00;19.08;;;14.70;99.90;;;;;;5091007;28;20380;-64
2022/07/01 04:28:32;;;;;;;23.75;19.85;;;14.60;99.90;;;;;;5091209;28;20048;-64
2022/07/01 04:30:58;;;;;;;26.08;19.73;;;14.60;99.90;;;;;;5091973;28;20070;-65
2022/07/01 04:33:23;;;;;;;23.65;19.92;;;14.50;99.90;;;;;;5088251;28;20050;-65
2022/07/01 04:35:49;;;;;;;23.30;19.55;;;14.50;99.90;;;;;;5121272;27;20047;-64
2022/07/01 04:38:15;;;;;;;25.23;21.02;;;14.40;99.90;;;;;;5090932;28;20101;-65
2022/07/01 04:40:40;;;;;;;25.05;20.95;;;14.50;99.90;;;;;;5091839;28;20441;-64
2022/07/01 04:43:26;;;;;;;26.23;20.75;;;14.50;99.90;;;;;;5089646;28;20468;-64
2022/07/01 04:45:51;;;;;;;25.30;20.88;;;14.50;99.90;;;;;;5090070;28;20126;-64
2022/07/01 04:48:17;;;;;;;25.20;21.27;;;14.50;99.90;;;;;;5090286;28;20028;-65
2022/07/01 04:50:44;;;;;;;23.17;19.65;;;14.50;99.90;;;;;;5122765;27;20048;-64
2022/07/01 04:53:09;;;;;;;24.55;19.30;;;14.50;99.90;;;;;;5090240;28;20042;-65
2022/07/01 04:55:35;;;;;;;21.42;18.48;;;14.50;99.90;;;;;;5122870;27;20035;-65
2022/07/01 04:58:01;;;;;;;24.25;19.58;;;14.50;99.90;;;;;;5089807;28;21454;-65
2022/07/01 05:00:26;;;;;;;24.02;19.25;;;14.60;99.90;;;;;;5090257;28;20085;-64
2022/07/01 05:02:52;;;;;;;25.58;20.05;;;14.60;99.90;;;;;;5092824;28;20039;-64
2022/07/01 05:05:17;;;;;;;24.65;20.58;;;14.60;99.90;;;;;;5090386;28;20445;-64
2022/07/01 05:07:43;;;;;;;22.45;19.95;;;14.60;99.90;;;;;;5093016;28;20024;-64
2022/07/01 05:10:09;;;;;;;23.70;19.83;;;14.60;99.90;;;;;;5091511;28;20214;-64
2022/07/01 05:12:34;;;;;;;24.52;19.50;;;14.60;99.90;;;;;;5090040;28;20028;-64
2022/07/01 05:15:00;;;;;;;25.65;20.85;;;14.50;99.90;;;;;;5122199;27;20402;-64
2022/07/01 05:21:55;;;;;;;25.17;20.15;;;14.50;99.90;;;;;;5089467;28;20049;-65
2022/07/01 05:22:55;;;;;;;23.38;19.52;;;14.50;99.90;;;;;;5089881;28;20143;-65
2022/07/01 05:25:21;;;;;;;24.48;20.73;;;14.50;99.90;;;;;;5090675;28;20135;-65
2022/07/01 05:27:47;;;;;;;23.60;20.08;;;14.60;99.90;;;;;;5121426;27;20050;-64
2022/07/01 05:30:13;;;;;;;23.25;19.88;;;14.60;99.90;;;;;;5123079;27;20127;-65
2022/07/01 05:32:38;;;;;;;24.23;20.65;;;14.70;99.90;;;;;;5089446;28;20050;-64
2022/07/01 05:35:05;;;;;;;24.48;20.55;;;14.70;99.90;;;;;;5090430;28;20044;-64
2022/07/01 05:37:30;;;;;;;21.98;19.55;;;14.70;99.90;;;;;;5090246;28;20036;-64
2022/07/01 05:39:56;;;;;;;23.30;19.30;;;14.70;99.90;;;;;;5090683;28;20469;-65
2022/07/01 05:42:21;;;;;;;25.05;20.25;;;14.70;99.90;;;;;;5122373;27;20094;-64
2022/07/01 05:44:47;;;;;;;23.20;20.10;;;14.70;99.90;;;;;;5122841;27;20056;-64
2022/07/01 05:47:13;;;;;;;22.75;19.55;;;14.70;99.90;;;;;;5119862;27;20040;-64
2022/07/01 05:49:38;;;;;;;21.15;18.65;;;14.70;99.90;;;;;;5086791;28;20470;-65
2022/07/01 05:52:04;;;;;;;24.02;19.38;;;14.70;99.90;;;;;;5088580;28;20142;-64
2022/07/01 05:54:30;;;;;;;21.70;19.40;;;14.70;99.90;;;;;;5088839;28;20039;-64
2022/07/01 05:56:55;;;;;;;21.73;19.40;;;14.70;99.90;;;;;;5122899;27;20044;-64
2022/07/01 05:59:21;;;;;;;22.08;19.58;;;14.70;99.90;;;;;;5088152;28;20055;-64
2022/07/01 06:01:48;;;;;;;21.88;19.25;;;14.70;99.90;;;;;;5090353;28;20028;-65
2022/07/01 06:04:14;;;;;;;21.02;18.70;;;14.70;99.90;;;;;;5086645;28;20158;-64
2022/07/01 06:06:40;;;;;;;20.73;17.88;;;14.80;99.90;;;;;;5087996;28;20032;-65
2022/07/01 06:09:06;;;;;;;25.23;19.73;;;14.70;99.90;;;;;;5119649;27;20047;-65
2022/07/01 06:11:31;;;;;;;21.23;18.50;;;14.70;99.90;;;;;;5089866;28;20161;-64
2022/07/01 06:13:57;;;;;;;20.70;17.65;;;14.70;99.90;;;;;;5120612;27;20064;-64
2022/07/01 06:16:22;;;;;;;20.65;18.08;;;14.80;99.90;;;;;;5121342;27;20044;-64
2022/07/01 06:18:48;;;;;;;22.92;18.75;;;14.80;99.90;;;;;;5071004;28;20051;-64
2022/07/01 06:21:15;;;;;;;20.55;17.90;;;14.80;99.90;;;;;;5122647;27;20576;-64
2022/07/01 06:23:40;;;;;;;23.48;17.85;;;14.80;99.90;;;;;;5083346;28;20089;-63
2022/07/01 06:26:06;;;;;;;21.08;16.80;;;14.80;99.90;;;;;;5089506;28;20044;-64
2022/07/01 06:28:32;;;;;;;24.98;17.25;;;14.80;99.90;;;;;;5088575;28;20040;-63
2022/07/01 06:30:58;;;;;;;20.58;17.75;;;14.80;99.90;;;;;;5122386;27;20051;-64
2022/07/01 06:33:25;;;;;;;22.58;18.23;;;14.90;99.90;;;;;;5089386;28;20501;-64
2022/07/01 06:35:51;;;;;;;19.75;17.60;;;14.90;99.90;;;;;;5088910;28;20071;-64
2022/07/01 06:38:16;;;;;;;20.35;18.17;;;14.90;99.90;;;;;;5088458;28;20040;-63
2022/07/01 06:40:42;;;;;;;22.88;18.73;;;14.90;99.90;;;;;;5088179;28;20082;-64
2022/07/01 06:43:08;;;;;;;24.10;18.90;;;15.00;99.90;;;;;;5089508;28;20093;-64
2022/07/01 06:45:33;;;;;;;22.08;18.15;;;14.90;99.90;;;;;;5088896;28;20040;-64
2022/07/01 06:47:59;;;;;;;20.13;18.00;;;14.90;99.90;;;;;;5121689;27;20036;-64
2022/07/01 06:50:24;;;;;;;25.08;18.77;;;14.90;99.90;;;;;;5089593;28;20466;-64
2022/07/01 06:52:50;;;;;;;22.23;19.08;;;15.00;99.90;;;;;;5122733;28;20063;-64
2022/07/01 06:55:16;;;;;;;25.92;20.30;;;15.00;99.90;;;;;;5089166;28;20036;-64
2022/07/01 06:57:41;;;;;;;22.52;19.10;;;15.00;99.90;;;;;;5121245;28;20032;-63
2022/07/01 07:00:07;;;;;;;24.05;19.95;;;14.90;99.90;;;;;;5122543;28;20047;-64
2022/07/01 07:02:33;;;;;;;21.55;18.10;;;14.90;99.90;;;;;;5089407;28;20059;-64
2022/07/01 07:04:59;;;;;;;19.95;17.67;;;15.00;99.90;;;;;;5089149;28;20040;-64
2022/07/01 07:07:24;;;;;;;25.40;19.40;;;15.00;99.90;;;;;;5086887;28;20040;-64
2022/07/01 07:09:50;;;;;;;21.83;19.30;;;15.00;99.90;;;;;;5088582;28;20410;-64
2022/07/01 07:12:16;;;;;;;23.48;19.30;;;15.00;99.90;;;;;;5089272;28;20030;-65
2022/07/01 07:14:41;;;;;;;26.02;19.95;;;15.10;99.90;;;;;;5089136;28;20047;-64
2022/07/01 07:17:07;;;;;;;23.73;19.23;;;15.10;99.90;;;;;;5122152;28;20028;-64
2022/07/01 07:19:33;;;;;;;23.38;19.45;;;15.20;99.90;;;;;;5087917;28;20120;-65
2022/07/01 07:21:58;;;;;;;19.52;17.42;;;15.20;99.90;;;;;;5087513;28;20036;-64
2022/07/01 07:24:24;;;;;;;20.70;17.77;;;15.30;99.90;;;;;;5088734;28;20075;-64
2022/07/01 07:26:50;;;;;;;22.40;18.25;;;15.40;99.90;;;;;;5088708;28;20148;-64
2022/07/01 07:29:15;;;;;;;20.85;18.23;;;15.30;99.90;;;;;;5121730;28;20115;-64
2022/07/01 07:31:41;;;;;;;22.40;17.08;;;15.40;99.90;;;;;;5088849;28;20424;-64
2022/07/01 07:34:06;;;;;;;20.80;17.45;;;15.50;99.90;;;;;;5104869;28;20056;-64
2022/07/01 07:36:32;;;;;;;21.83;17.90;;;15.60;99.90;;;;;;5086564;28;20028;-64
2022/07/01 07:38:58;;;;;;;24.38;17.65;;;15.60;99.90;;;;;;5089323;28;20040;-64
2022/07/01 07:41:24;;;;;;;22.35;17.25;;;15.70;99.90;;;;;;5088293;28;20483;-64
2022/07/01 07:43:50;;;;;;;23.67;18.48;;;15.90;99.90;;;;;;5087964;28;20058;-64
2022/07/01 07:46:16;;;;;;;20.98;17.23;;;16.10;99.90;;;;;;5088900;28;20044;-64
2022/07/01 07:48:43;;;;;;;19.55;16.83;;;16.10;99.90;;;;;;5121150;28;20063;-64
2022/07/01 07:51:09;;;;;;;20.10;16.38;;;16.10;99.90;;;;;;5088783;28;20062;-65
2022/07/01 07:53:35;;;;;;;18.98;17.00;;;16.10;99.90;;;;;;5087108;28;20043;-64
2022/07/01 07:56:01;;;;;;;20.85;16.40;;;16.30;99.90;;;;;;5089006;28;20048;-65
2022/07/01 07:58:26;;;;;;;20.50;16.45;;;16.40;99.90;;;;;;5088824;28;20162;-65
2022/07/01 08:00:52;;;;;;;17.60;15.57;;;16.40;99.90;;;;;;5090838;28;20040;-63
2022/07/01 08:03:17;;;;;;;19.95;16.40;;;16.50;99.90;;;;;;5091630;28;20047;-64
2022/07/01 08:05:43;;;;;;;18.80;14.55;;;16.70;99.90;;;;;;5090758;28;20052;-64
2022/07/01 08:08:09;;;;;;;19.60;15.00;;;16.70;99.90;;;;;;5124373;27;20032;-64
2022/07/01 08:10:34;;;;;;;20.95;15.98;;;17.00;99.90;;;;;;5092680;28;20113;-64
2022/07/01 08:13:04;;;;;;;18.75;15.13;;;17.00;99.90;;;;;;5125430;27;20036;-64
2022/07/01 08:15:30;;;;;;;17.58;14.30;;;17.00;99.90;;;;;;5090250;28;20156;-64
2022/07/01 08:17:56;;;;;;;19.50;15.13;;;17.00;99.90;;;;;;5092480;28;20425;-64
2022/07/01 08:20:22;;;;;;;17.55;14.77;;;16.90;99.90;;;;;;5125147;27;20038;-64
2022/07/01 08:22:47;;;;;;;16.30;13.80;;;16.90;99.90;;;;;;5092345;28;20072;-65
2022/07/01 08:25:13;;;;;;;18.52;14.82;;;16.90;99.90;;;;;;5089922;28;20056;-65
2022/07/01 08:27:39;;;;;;;20.20;14.82;;;16.80;99.90;;;;;;5125085;27;20130;-64
2022/07/01 08:30:06;;;;;;;18.35;14.43;;;16.90;99.90;;;;;;5091151;28;20062;-64
2022/07/01 08:32:32;;;;;;;20.27;14.00;;;17.00;99.90;;;;;;5092129;28;20115;-63
2022/07/01 08:34:58;;;;;;;17.15;13.45;;;17.10;99.90;;;;;;5125385;27;20484;-64
2022/07/01 08:37:23;;;;;;;16.33;14.05;;;17.20;99.90;;;;;;5090818;28;20085;-64
2022/07/01 08:39:49;;;;;;;19.30;13.90;;;17.40;99.90;;;;;;5091420;28;20425;-64
2022/07/01 08:42:15;;;;;;;19.67;14.20;;;17.60;99.90;;;;;;5124841;27;20069;-64
2022/07/01 08:44:40;;;;;;;14.75;12.48;;;17.90;99.90;;;;;;5091894;28;20039;-64
2022/07/01 08:47:12;;;;;;;16.08;13.15;;;17.90;99.90;;;;;;5124740;27;20513;-64
2022/07/01 08:49:38;;;;;;;;;;;17.90;99.90;;;;;;5090542;28;20043;-64
2022/07/01 08:52:04;;;;;;;16.50;12.48;;;18.00;99.90;;;;;;5090775;28;19916;-64
2022/07/01 08:54:29;;;;;;;17.30;13.15;;;18.10;99.90;;;;;;5091722;28;20382;-65
2022/07/01 08:56:55;;;;;;;15.77;11.40;;;18.20;99.90;;;;;;5092155;28;20032;-64
2022/07/01 08:59:26;;;;;;;12.25;10.90;;;18.30;99.90;;;;;;5090389;28;20180;-64
2022/07/01 09:01:56;;;;;;;13.80;11.10;;;18.20;99.90;;;;;;5091528;28;20449;-64
2022/07/01 09:04:22;;;;;;;15.57;10.55;;;18.30;99.90;;;;;;5091734;28;20032;-64
2022/07/01 09:06:48;;;;;;;14.77;9.73;;;18.40;99.90;;;;;;5091582;28;20372;-64
2022/07/01 09:09:21;;;;;;;12.98;9.95;;;18.50;99.90;;;;;;5091493;28;20039;-63
2022/07/01 09:11:55;;;;;;;10.82;7.65;;;18.80;99.90;;;;;;5089748;28;20056;-65
2022/07/01 09:14:26;;;;;;;12.60;8.43;;;19.00;99.90;;;;;;5088898;28;20040;-64
2022/07/01 09:16:58;;;;;;;11.82;7.60;;;19.30;99.90;;;;;;5091454;28;20044;-64
2022/07/01 09:19:24;;;;;;;9.83;7.33;;;19.40;99.90;;;;;;5091326;28;20399;-64
2022/07/01 09:22:00;;;;;;;12.10;6.80;;;19.50;99.90;;;;;;5090289;28;20055;-64
2022/07/01 09:24:37;;;;;;;9.35;5.85;;;19.50;99.90;;;;;;5090847;28;20048;-64
2022/07/01 09:27:09;;;;;;;11.63;5.97;;;19.40;99.90;;;;;;5088626;28;20049;-63
2022/07/01 09:29:43;;;;;;;9.17;5.77;;;19.50;99.90;;;;;;5089089;28;20135;-65
2022/07/01 09:32:11;;;;;;;10.23;6.10;;;19.50;99.90;;;;;;5090567;28;20066;-65
2022/07/01 09:34:42;;;;;;;8.13;5.22;;;19.80;99.90;;;;;;5089565;28;21210;-64
2022/07/01 09:37:10;;;;;;;8.95;5.63;;;20.00;99.90;;;;;;5089412;28;20055;-64
2022/07/01 09:39:50;;;;;;;7.60;5.60;;;20.20;99.90;;;;;;5090982;28;20032;-64
2022/07/01 09:42:18;;;;;;;8.48;5.00;;;20.40;99.90;;;;;;5090763;28;20593;-63
2022/07/01 09:44:53;;;;;;;6.55;4.65;;;20.40;99.90;;;;;;5090211;28;20483;-65
2022/07/01 09:47:23;;;;;;;7.72;4.95;;;20.60;99.90;;;;;;5089486;28;20054;-65
2022/07/01 09:49:49;;;;;;;8.25;5.68;;;20.30;99.90;;;;;;5090545;28;20386;-64
2022/07/01 09:52:15;;;;;;;7.35;5.28;;;20.00;99.90;;;;;;5088676;28;20055;-64
2022/07/01 09:54:42;;;;;;;5.57;4.03;;;20.20;99.90;;;;;;5087444;28;20035;-64
2022/07/01 09:57:07;;;;;;;7.32;4.97;;;20.40;99.90;;;;;;5089702;28;20498;-64
2022/07/01 09:59:33;;;;;;;7.28;4.85;;;20.20;99.90;;;;;;5086710;28;20039;-64
2022/07/01 10:02:00;;;;;;;5.47;3.80;;;20.40;99.90;;;;;;5089699;28;20032;-64
2022/07/01 10:04:26;;;;;;;8.65;4.43;;;20.60;99.90;;;;;;5089820;28;20051;-63
2022/07/01 10:07:06;;;;;;;8.18;5.07;;;20.90;99.90;;;;;;5089700;28;20188;-64
2022/07/01 10:10:12;;;;;;;7.00;4.50;;;20.80;99.90;;;;;;5084572;28;20048;-64
2022/07/01 10:12:43;;;;;;;8.15;4.05;;;21.10;99.90;;;;;;5010908;28;20132;-64
2022/07/01 10:15:11;;;;;;;5.15;3.03;;;21.50;99.90;;;;;;5010980;28;20099;-64
2022/07/01 10:17:42;;;;;;;4.65;3.30;;;21.60;99.90;;;;;;5043779;28;20140;-64
2022/07/01 10:20:16;;;;;;;6.00;2.90;;;21.30;99.90;;;;;;5025248;28;20535;-64
2022/07/01 10:22:44;;;;;;;4.65;2.60;;;21.20;99.90;;;;;;5026586;28;20116;-65
2022/07/01 10:25:43;;;;;;;8.23;2.80;;;21.20;99.90;;;;;;5023992;28;20049;-63
2022/07/01 10:28:12;;;;;;;4.22;2.40;;;21.20;99.90;;;;;;5025609;28;20121;-64
2022/07/01 10:30:48;;;;;;;5.32;3.53;;;21.10;99.90;;;;;;5024504;28;20042;-65
2022/07/01 10:33:29;;;;;;;6.10;3.10;;;20.90;99.90;;;;;;5026198;28;20049;-64
2022/07/01 10:35:55;;;;;;;4.10;2.63;;;20.70;99.90;;;;;;5010093;28;20211;-64
2022/07/01 10:38:20;;;;;;;6.68;2.72;;;20.70;99.90;;;;;;5026380;28;20073;-64
2022/07/01 10:40:48;;;;;;;6.20;2.20;;;20.80;99.90;;;;;;5010234;28;20519;-65
2022/07/01 10:43:32;;;;;;;6.25;2.10;;;20.90;99.90;;;;;;5009075;28;20514;-65
2022/07/01 10:45:58;;;;;;;4.38;2.10;;;21.00;99.90;;;;;;5025106;28;20095;-64
2022/07/01 10:48:24;;;;;;;6.15;1.83;;;21.40;99.90;;;;;;5030985;28;20041;-64
2022/07/01 10:50:51;;;;;;;5.60;1.92;;;21.70;99.90;;;;;;5086659;28;20081;-65
2022/07/01 10:53:18;;;;;;;8.27;1.63;;;21.50;99.90;;;;;;5087852;28;20109;-64
2022/07/01 10:55:49;;;;;;;4.28;1.35;;;21.10;99.90;;;;;;5085298;28;20109;-64
2022/07/01 10:58:18;;;;;;;3.22;1.40;;;21.00;99.90;;;;;;5087080;28;20194;-63
2022/07/01 11:00:46;;;;;;;6.07;1.40;;;21.20;99.90;;;;;;5086943;28;20054;-63
2022/07/01 11:03:14;;;;;;;4.40;1.35;;;21.40;99.90;;;;;;5089230;28;20039;-64
2022/07/01 11:05:42;;;;;;;7.35;1.30;;;21.50;99.90;;;;;;5089090;28;20051;-64
2022/07/01 11:08:08;;;;;;;5.18;1.52;;;21.30;99.90;;;;;;5087271;28;20047;-65
2022/07/01 11:10:34;;;;;;;5.45;1.30;;;21.00;99.90;;;;;;5087234;28;20113;-64
2022/07/01 11:13:01;;;;;;;4.30;1.02;;;20.70;99.90;;;;;;5088931;28;20042;-63
2022/07/01 11:15:29;;;;;;;3.55;1.13;;;20.50;99.90;;;;;;5088182;28;20360;-64
2022/07/01 11:17:56;;;;;;;3.08;1.48;;;20.50;99.90;;;;;;5089458;28;20040;-64
2022/07/01 11:20:28;;;;;;;4.50;1.20;;;20.50;99.90;;;;;;5088952;28;20044;-64
2022/07/01 11:22:54;;;;;;;5.22;1.27;;;20.30;99.90;;;;;;5088756;28;20028;-65
2022/07/01 11:25:20;;;;;;;6.50;1.70;;;20.30;99.90;;;;;;5088622;28;20040;-64
2022/07/01 11:27:47;;;;;;;5.78;1.65;;;20.20;99.90;;;;;;5088915;28;20052;-65
2022/07/01 11:30:14;;;;;;;4.18;1.17;;;20.50;99.90;;;;;;5089225;28;20035;-64
2022/07/01 11:32:47;;;;;;;4.70;1.38;;;20.70;99.90;;;;;;5089054;28;20056;-63
2022/07/01 11:41:06;;;;;;;4.97;1.20;;;20.80;99.90;;;;;;5092623;28;20052;-64
2022/07/01 11:43:40;;;;;;;3.22;0.90;;;20.60;99.90;;;;;;5091549;28;20036;-63
2022/07/01 11:46:07;;;;;;;3.15;1.08;;;20.40;99.90;;;;;;5091476;28;20032;-64
2022/07/01 11:48:44;;;;;;;4.82;1.23;;;20.40;99.90;;;;;;5091352;28;20028;-64
2022/07/01 11:51:12;;;;;;;4.45;1.00;;;20.30;99.90;;;;;;5089460;28;20048;-64
2022/07/01 11:53:48;;;;;;;1.95;0.82;;;20.10;99.90;;;;;;5089233;28;20062;-65
2022/07/01 11:56:14;;;;;;;5.78;1.10;;;20.20;99.90;;;;;;5089563;28;20070;-64
2022/07/01 11:58:59;;;;;;;4.00;0.95;;;20.50;99.90;;;;;;5092884;28;20052;-65
2022/07/01 12:01:27;;;;;;;2.83;1.00;;;20.70;99.90;;;;;;5091146;28;20040;-64
2022/07/01 12:03:55;;;;;;;6.18;1.20;;;20.90;99.90;;;;;;5091000;28;20040;-64
2022/07/01 12:06:23;;;;;;;4.32;1.15;;;20.70;99.90;;;;;;5092067;28;20039;-65
2022/07/01 12:08:50;;;;;;;4.55;1.20;;;20.50;99.90;;;;;;5091217;28;20047;-64
2022/07/01 12:11:17;;;;;;;4.35;1.05;;;20.20;99.90;;;;;;5092537;28;20677;-64
2022/07/01 12:13:44;;;;;;;3.95;1.00;;;19.90;99.90;;;;;;5090970;28;20047;-65
2022/07/01 12:16:11;;;;;;;2.95;1.00;;;19.70;99.90;;;;;;5092421;28;20151;-64
2022/07/01 12:18:37;;;;;;;3.65;1.00;;;19.60;99.90;;;;;;5090912;28;20490;-64
2022/07/01 12:21:03;;;;;;;6.20;1.38;;;19.50;99.90;;;;;;5091076;28;20043;-64
2022/07/01 12:23:28;;;;;;;3.47;1.25;;;19.50;99.90;;;;;;5091180;28;20502;-64
2022/07/01 12:25:57;;;;;;;6.32;1.40;;;19.40;99.90;;;;;;5090491;28;20052;-65
2022/07/01 12:28:31;;;;;;;5.28;1.25;;;19.40;99.90;;;;;;5092426;28;20078;-64
2022/07/01 12:31:02;;;;;;;2.85;0.93;;;19.30;99.90;;;;;;5088584;28;20047;-63
2022/07/01 12:33:28;;;;;;;4.00;1.25;;;19.30;99.90;;;;;;5090292;28;20517;-65
2022/07/01 12:35:55;;;;;;;4.00;1.40;;;19.30;99.90;;;;;;5091394;28;20079;-64
2022/07/01 12:38:20;;;;;;;3.15;1.20;;;19.30;99.90;;;;;;5090086;28;20143;-64
2022/07/01 12:40:46;;;;;;;4.28;1.30;;;19.20;99.90;;;;;;5092563;28;20589;-64
2022/07/01 12:43:28;;;;;;;4.75;1.23;;;19.20;99.90;;;;;;5091222;28;20063;-63
2022/07/01 12:45:55;;;;;;;5.60;1.10;;;19.00;99.90;;;;;;5090094;27;20047;-65
2022/07/01 12:48:21;;;;;;;5.22;1.67;;;18.90;99.90;;;;;;5091784;28;20071;-64
2022/07/01 12:50:47;;;;;;;3.17;1.10;;;18.80;99.90;;;;;;5091308;28;20082;-64
2022/07/01 12:53:19;;;;;;;9.05;1.85;;;18.90;99.90;;;;;;5090583;28;20086;-64